Time;durP1;ratioP1;P1;durP2;ratioP2;P2;SDS_P1;SDS_P2;PMS_P1;PMS_P2;Temp;Humidity;BMP_temperature;BMP_pressure;BME280_temperature;BME280_humidity;BME280_pressure;Samples;Min_cycle;Max_cycle;Signal;HPM_P1;HPM_P2
2022/10/01 00:01:08;;;;;;;;;3.33;3.33;;;;;13.96;69.01;100004.09;5042348;28;46153;-64
2022/10/01 00:03:34;;;;;;;;;2.67;2.67;;;;;13.98;70.51;100016.28;5042263;28;45533;-63
2022/10/01 00:06:09;;;;;;;;;4.67;4.67;;;;;13.97;70.15;100004.03;5041966;28;45376;-65
2022/10/01 00:08:37;;;;;;;;;5.67;5.67;;;;;13.98;70.58;99992.50;5058350;28;45479;-66
2022/10/01 00:11:11;;;;;;;;;3.67;3.67;;;;;14.00;70.63;100008.28;5061472;28;45529;-65
2022/10/01 00:13:37;;;;;;;;;4.00;4.00;;;;;13.98;70.32;99987.19;5062088;28;45435;-63
2022/10/01 00:16:06;;;;;;;;;4.00;4.00;;;;;13.98;70.35;99978.44;5062285;28;45398;-63
2022/10/01 00:18:35;;;;;;;;;4.33;3.00;;;;;14.01;70.03;99980.88;5044485;28;45555;-66
2022/10/01 00:21:04;;;;;;;;;4.33;4.33;;;;;14.02;69.31;99961.41;5060575;28;45561;-66
2022/10/01 00:23:30;;;;;;;;;4.67;4.67;;;;;14.03;70.67;99973.72;5061870;28;45356;-64
2022/10/01 00:25:55;;;;;;;;;4.33;3.00;;;;;14.00;71.65;99973.91;5062284;28;45529;-65
2022/10/01 00:28:20;;;;;;;;;4.00;4.00;;;;;13.96;71.26;99954.72;5061552;28;45731;-64
2022/10/01 00:30:46;;;;;;;;;2.67;1.67;;;;;14.02;71.40;99959.63;5061574;28;58543;-65
2022/10/01 00:33:12;;;;;;;;;3.00;3.00;;;;;14.06;69.80;99949.72;5062225;28;45394;-65
2022/10/01 00:35:37;;;;;;;;;4.33;4.33;;;;;14.05;70.02;99934.78;5060529;28;45573;-64
2022/10/01 00:38:03;;;;;;;;;3.00;3.00;;;;;14.03;71.66;99957.84;5043886;28;45628;-63
2022/10/01 00:40:28;;;;;;;;;3.00;3.00;;;;;14.05;70.89;99961.22;5061069;28;46192;-63
2022/10/01 00:42:53;;;;;;;;;3.00;3.00;;;;;14.08;70.82;99971.66;5061289;28;45423;-64
2022/10/01 00:45:19;;;;;;;;;2.67;2.67;;;;;14.09;71.09;99941.59;5062012;28;45490;-65
2022/10/01 00:47:54;;;;;;;;;4.00;4.00;;;;;14.06;70.60;99966.44;5062010;28;45364;-65
2022/10/01 00:50:25;;;;;;;;;3.00;3.00;;;;;14.08;72.02;99963.72;5061503;28;46510;-64
2022/10/01 00:52:54;;;;;;;;;4.00;3.67;;;;;14.07;72.60;99968.13;5044575;28;45546;-64
2022/10/01 00:55:40;;;;;;;;;3.00;3.00;;;;;14.10;72.05;99967.09;5038176;28;45440;-66
2022/10/01 00:58:09;;;;;;;;;4.00;4.00;;;;;14.02;72.76;99964.06;5041985;28;45428;-66
2022/10/01 01:00:36;;;;;;;;;2.67;2.67;;;;;14.06;72.81;99971.72;5041151;28;46291;-65
2022/10/01 01:03:03;;;;;;;;;3.00;3.00;;;;;14.05;72.00;100008.81;5041651;28;45481;-63
2022/10/01 01:05:29;;;;;;;;;2.00;2.00;;;;;14.04;72.68;99967.47;5038313;28;45482;-63
2022/10/01 01:07:54;;;;;;;;;2.67;2.67;;;;;14.08;72.01;99954.00;5038620;28;45470;-63
2022/10/01 01:10:50;;;;;;;;;2.00;2.00;;;;;14.07;72.40;99949.63;5044937;28;46362;-65
2022/10/01 01:13:51;;;;;;;;;2.00;2.00;;;;;14.09;73.06;99952.19;5058080;28;45384;-62
2022/10/01 01:16:28;;;;;;;;;2.33;2.33;;;;;14.07;72.21;99946.97;5058319;28;45485;-64
2022/10/01 01:19:23;;;;;;;;;2.67;2.67;;;;;14.09;73.58;99962.75;5040000;28;45900;-65
2022/10/01 01:21:55;;;;;;;;;1.67;1.67;;;;;14.06;72.52;99963.81;5057150;28;45447;-64
2022/10/01 01:24:23;;;;;;;;;1.67;1.67;;;;;14.12;72.77;99952.00;5057998;28;45556;-65
2022/10/01 01:27:16;;;;;;;;;3.00;3.00;;;;;14.13;71.62;99951.91;5058209;28;45557;-66
2022/10/01 01:30:14;;;;;;;;;1.33;1.33;;;;;14.13;74.79;99937.81;5057861;28;45356;-65
2022/10/01 01:33:01;;;;;;;;;2.00;2.00;;;;;14.12;73.64;99946.72;5057228;28;46488;-63
2022/10/01 01:35:32;;;;;;;;;1.33;1.33;;;;;14.12;72.92;99925.56;5057692;28;45455;-64
2022/10/01 01:38:02;;;;;;;;;2.00;2.00;;;;;14.12;73.61;99936.13;5058100;28;45441;-64
2022/10/01 01:40:31;;;;;;;;;1.33;1.33;;;;;14.12;73.39;99923.75;5057319;28;45595;-66
2022/10/01 01:42:58;;;;;;;;;2.00;2.00;;;;;14.14;73.36;99928.97;5057544;28;45423;-65
2022/10/01 01:45:29;;;;;;;;;1.00;1.00;;;;;14.14;73.98;99921.88;5057467;28;45469;-64
2022/10/01 01:47:57;;;;;;;;;1.67;1.67;;;;;14.15;73.26;99910.34;5057949;28;45426;-66
2022/10/01 01:50:25;;;;;;;;;1.00;1.00;;;;;14.15;74.98;99910.34;5058002;28;45380;-63
2022/10/01 01:52:52;;;;;;;;;2.00;2.00;;;;;14.19;72.97;99916.31;5058144;28;45668;-65
2022/10/01 01:55:18;;;;;;;;;2.00;1.67;;;;;14.15;74.33;99909.50;5036802;28;45668;-65
2022/10/01 01:57:44;;;;;;;;;1.00;1.00;;;;;14.11;75.29;99900.91;5057701;28;45337;-64
2022/10/01 02:00:11;;;;;;;;;1.33;1.00;;;;;14.20;73.65;99907.41;5057670;28;45443;-62
2022/10/01 02:02:40;;;;;;;;;1.00;1.00;;;;;14.17;73.77;99899.69;5057293;28;46455;-63
2022/10/01 02:05:09;;;;;;;;;0.00;0.00;;;;;14.20;73.77;99904.78;5057642;28;45535;-65
2022/10/01 02:07:41;;;;;;;;;1.00;1.00;;;;;14.26;74.06;99904.38;5057014;28;45444;-65
2022/10/01 02:10:39;;;;;;;;;1.00;1.00;;;;;14.27;74.42;99895.53;5057515;28;45630;-63
2022/10/01 02:13:23;;;;;;;;;0.00;0.00;;;;;14.31;74.91;99917.34;5015938;28;45457;-65
2022/10/01 02:16:26;;;;;;;;;1.00;1.00;;;;;14.32;75.22;99921.72;5038759;28;45419;-64
2022/10/01 02:18:57;;;;;;;;;1.00;1.00;;;;;14.31;74.66;99910.25;5005843;28;45471;-65
2022/10/01 02:21:25;;;;;;;;;0.33;0.33;;;;;14.30;75.03;99884.75;5056591;28;45412;-63
2022/10/01 02:24:07;;;;;;;;;1.00;1.00;;;;;14.31;73.76;99893.53;5056679;28;46222;-65
2022/10/01 02:26:36;;;;;;;;;1.00;1.00;;;;;14.31;74.67;99880.31;5038150;28;45799;-64
2022/10/01 02:29:07;;;;;;;;;1.00;1.00;;;;;14.32;73.94;99897.91;5055951;28;45353;-65
2022/10/01 02:31:34;;;;;;;;;0.00;0.00;;;;;14.32;74.87;99897.91;5057028;28;45373;-65
2022/10/01 02:34:01;;;;;;;;;1.00;1.00;;;;;14.30;73.84;99871.53;5056772;28;46554;-65
2022/10/01 02:36:31;;;;;;;;;1.00;1.00;;;;;14.34;74.88;99894.19;5056680;28;45368;-66
2022/10/01 02:38:59;;;;;;;;;1.00;1.00;;;;;14.35;74.46;99893.25;5039228;28;45467;-63
2022/10/01 02:41:30;;;;;;;;;1.00;0.00;;;;;14.38;75.18;99873.69;5056996;28;45585;-66
2022/10/01 02:44:01;;;;;;;;;0.00;0.00;;;;;14.41;74.05;99889.38;5056102;28;45383;-64
2022/10/01 02:46:35;;;;;;;;;0.00;0.00;;;;;14.44;73.78;99875.09;5056777;28;45367;-66
2022/10/01 02:49:01;;;;;;;;;0.00;0.00;;;;;14.47;75.06;99893.44;5056964;28;45460;-64
2022/10/01 02:51:52;;;;;;;;;0.33;0.33;;;;;14.48;74.27;99874.81;5038601;28;45498;-66
2022/10/01 02:54:27;;;;;;;;;0.00;0.00;;;;;14.51;74.36;99876.44;5039212;28;47664;-64
2022/10/01 02:59:38;;;;;;;;;0.67;0.67;;;;;14.50;73.97;99857.03;5056869;28;45430;-63
2022/10/01 03:02:03;;;;;;;;;0.00;0.00;;;;;14.52;74.16;99857.81;5056779;28;45399;-65
2022/10/01 03:04:29;;;;;;;;;0.00;0.00;;;;;14.51;75.16;99853.47;5056572;28;45581;-65
2022/10/01 03:06:54;;;;;;;;;0.00;0.00;;;;;14.48;74.84;99832.50;5054937;28;45494;-64
2022/10/01 03:09:20;;;;;;;;;0.00;0.00;;;;;14.51;75.47;99844.69;5056839;28;45446;-63
2022/10/01 03:11:46;;;;;;;;;0.00;0.00;;;;;14.52;75.72;99841.06;5055967;28;45486;-64
2022/10/01 03:14:11;;;;;;;;;0.00;0.00;;;;;14.52;74.65;99839.31;5056465;28;46328;-64
2022/10/01 03:16:36;;;;;;;;;0.00;0.00;;;;;14.55;75.06;99828.53;5056115;28;45428;-67
2022/10/01 03:19:02;;;;;;;;;0.00;0.00;;;;;14.53;75.42;99837.50;5056678;28;45558;-66
2022/10/01 03:21:28;;;;;;;;;0.00;0.00;;;;;14.57;75.77;99839.88;5056604;28;45362;-65
2022/10/01 03:23:53;;;;;;;;;0.00;0.00;;;;;14.57;74.60;99842.50;5037909;28;47649;-66
2022/10/01 03:26:19;;;;;;;;;0.00;0.00;;;;;14.51;76.00;99840.22;5033403;28;45674;-64
2022/10/01 03:28:44;;;;;;;;;1.00;1.00;;;;;14.61;75.91;99852.88;5035414;28;45360;-65
2022/10/01 03:31:10;;;;;;;;;0.00;0.00;;;;;14.59;75.81;99839.78;5036109;28;45368;-65
2022/10/01 03:33:36;;;;;;;;;0.33;0.00;;;;;14.62;74.61;99858.09;5036001;28;45437;-66
2022/10/01 03:36:02;;;;;;;;;0.00;0.00;;;;;14.63;75.68;99829.84;5035892;28;45423;-66
2022/10/01 03:38:28;;;;;;;;;0.00;0.00;;;;;14.66;76.04;99845.50;5035977;28;45430;-63
2022/10/01 03:40:54;;;;;;;;;0.00;0.00;;;;;14.65;76.96;99847.31;5054276;28;45386;-66
2022/10/01 03:43:19;;;;;;;;;0.00;0.00;;;;;14.68;76.57;99857.69;5055999;28;45435;-63
2022/10/01 03:45:46;;;;;;;;;0.00;0.00;;;;;14.69;75.38;99854.09;5055935;28;45430;-65
2022/10/01 03:48:11;;;;;;;;;0.00;0.00;;;;;14.71;76.00;99843.41;5056024;28;45471;-65
2022/10/01 03:50:36;;;;;;;;;0.00;0.00;;;;;14.73;75.96;99839.72;5055996;28;45301;-64
2022/10/01 03:53:01;;;;;;;;;0.00;0.00;;;;;14.73;76.84;99849.47;5055700;28;46367;-64
2022/10/01 03:55:27;;;;;;;;;0.00;0.00;;;;;14.66;77.50;99846.34;5055968;28;45381;-65
2022/10/01 03:57:52;;;;;;;;;0.00;0.00;;;;;14.76;76.76;99865.16;5055974;28;45334;-66
2022/10/01 04:00:17;;;;;;;;;0.00;0.00;;;;;14.76;75.57;99871.28;5055533;28;45687;-63
2022/10/01 04:02:43;;;;;;;;;0.00;0.00;;;;;14.79;76.68;99865.78;5056024;28;46597;-65
2022/10/01 04:05:09;;;;;;;;;0.00;0.00;;;;;14.83;75.76;99873.53;5055239;28;45423;-63
2022/10/01 04:07:34;;;;;;;;;0.00;0.00;;;;;14.80;76.69;99887.81;5056072;28;45448;-64
2022/10/01 04:10:00;;;;;;;;;0.00;0.00;;;;;14.76;77.07;99894.28;5055964;28;45341;-64
2022/10/01 04:12:25;;;;;;;;;0.00;0.00;;;;;14.84;77.33;99891.97;5055504;28;46623;-63
2022/10/01 04:14:50;;;;;;;;;0.00;0.00;;;;;14.83;77.21;99895.59;5055619;28;45416;-64
2022/10/01 04:17:16;;;;;;;;;0.00;0.00;;;;;14.88;77.42;99893.47;5055286;28;45504;-66
2022/10/01 04:19:41;;;;;;;;;0.00;0.00;;;;;14.85;78.62;99900.75;5053694;28;45672;-66
2022/10/01 04:22:06;;;;;;;;;0.00;0.00;;;;;14.88;77.43;99897.91;5054629;28;50225;-64
2022/10/01 04:24:32;;;;;;;;;0.00;0.00;;;;;14.86;77.74;99903.31;5055274;28;45537;-66
2022/10/01 04:26:57;;;;;;;;;0.00;0.00;;;;;14.94;77.08;99910.78;5037420;28;45482;-65
2022/10/01 04:29:22;;;;;;;;;0.00;0.00;;;;;14.92;77.50;99910.03;5055685;28;45451;-64
2022/10/01 04:31:48;;;;;;;;;0.00;0.00;;;;;14.88;76.16;99905.84;5055379;28;47978;-66
2022/10/01 04:34:13;;;;;;;;;0.00;0.00;;;;;14.94;78.96;99916.91;5054872;28;45473;-67
2022/10/01 04:36:38;;;;;;;;;0.00;0.00;;;;;14.92;78.37;99910.03;5055338;28;45391;-64
2022/10/01 04:39:04;;;;;;;;;0.00;0.00;;;;;15.01;78.29;99922.66;5055847;28;45367;-64
2022/10/01 04:41:30;;;;;;;;;0.00;0.00;;;;;15.05;77.71;99928.63;5058087;28;45971;-64
2022/10/01 04:43:57;;;;;;;;;0.00;0.00;;;;;15.06;79.31;99935.59;5058929;28;45460;-66
2022/10/01 04:46:23;;;;;;;;;0.00;0.00;;;;;15.00;79.44;99932.41;5058748;28;45368;-66
2022/10/01 04:48:48;;;;;;;;;0.00;0.00;;;;;15.06;77.45;99933.81;5058400;28;45327;-64
2022/10/01 04:51:14;;;;;;;;;0.00;0.00;;;;;15.08;78.39;99945.16;5053897;28;45471;-66
2022/10/01 04:53:40;;;;;;;;;0.00;0.00;;;;;15.10;78.10;99953.84;5038949;28;45376;-66
2022/10/01 04:56:05;;;;;;;;;0.00;0.00;;;;;15.11;79.09;99941.47;5045314;28;45329;-65
2022/10/01 04:58:31;;;;;;;;;0.00;0.00;;;;;15.13;79.18;99958.13;5057104;28;45588;-64
2022/10/01 05:00:56;;;;;;;;;0.00;0.00;;;;;15.13;79.59;99955.47;5054587;28;45651;-63
2022/10/01 05:03:21;;;;;;;;;0.00;0.00;;;;;15.16;78.58;99950.81;5038416;28;45588;-64
2022/10/01 05:05:47;;;;;;;;;0.00;0.00;;;;;15.20;76.85;99947.00;5038456;28;45483;-65
2022/10/01 05:08:12;;;;;;;;;0.00;0.00;;;;;15.18;77.89;99948.91;5044777;28;45642;-63
2022/10/01 05:10:38;;;;;;;;;0.00;0.00;;;;;15.23;77.39;99957.41;5058423;28;45556;-64
2022/10/01 05:13:03;;;;;;;;;0.00;0.00;;;;;15.25;77.38;99959.94;5058200;28;45475;-62
2022/10/01 05:15:29;;;;;;;;;0.00;0.00;;;;;15.24;77.69;99960.91;5040269;28;45529;-63
2022/10/01 05:17:54;;;;;;;;;0.00;0.00;;;;;15.24;78.25;99959.09;5054648;28;45475;-65
2022/10/01 05:20:23;;;;;;;;;0.00;0.00;;;;;15.25;78.36;99971.38;5037833;28;46199;-65
2022/10/01 05:22:49;;;;;;;;;0.00;0.00;;;;;15.31;78.53;99982.53;5038226;28;45407;-65
2022/10/01 05:25:15;;;;;;;;;0.00;0.00;;;;;15.25;78.40;99979.34;5038019;28;45401;-65
2022/10/01 05:27:41;;;;;;;;;1.00;0.00;;;;;15.30;77.69;99978.19;5038328;28;45337;-65
2022/10/01 05:30:11;;;;;;;;;0.00;0.00;;;;;15.33;78.56;99980.66;5037739;28;46027;-64
2022/10/01 05:32:37;;;;;;;;;0.00;0.00;;;;;15.34;78.16;99980.56;5038028;28;45483;-63
2022/10/01 05:35:05;;;;;;;;;0.00;0.00;;;;;15.35;77.87;99994.66;5020478;28;45448;-61
2022/10/01 05:37:30;;;;;;;;;0.00;0.00;;;;;15.36;79.01;100002.50;5037896;28;45588;-64
2022/10/01 05:39:55;;;;;;;;;0.00;0.00;;;;;15.35;78.25;99997.31;5037794;28;46534;-63
2022/10/01 05:42:21;;;;;;;;;0.00;0.00;;;;;15.29;78.47;100003.00;5037619;28;45412;-64
2022/10/01 05:44:48;;;;;;;;;0.00;0.00;;;;;15.33;78.96;100007.16;5044315;28;45589;-63
2022/10/01 05:47:15;;;;;;;;;0.00;0.00;;;;;15.39;78.57;100012.91;5058063;28;45399;-65
2022/10/01 05:49:43;;;;;;;;;0.00;0.00;;;;;15.42;77.73;100025.97;5057496;28;45526;-62
2022/10/01 05:52:13;;;;;;;;;0.00;0.00;;;;;15.43;78.70;100027.66;5056224;28;45383;-62
2022/10/01 05:54:39;;;;;;;;;0.00;0.00;;;;;15.46;78.11;100031.91;5058188;28;45391;-62
2022/10/01 05:57:06;;;;;;;;;0.00;0.00;;;;;15.45;78.10;100033.72;5057824;28;45426;-62
2022/10/01 05:59:33;;;;;;;;;0.00;0.00;;;;;15.47;77.86;100046.84;5057413;28;46619;-65
2022/10/01 06:01:58;;;;;;;;;0.00;0.00;;;;;15.51;78.73;100043.06;5057635;28;45479;-62
2022/10/01 06:04:23;;;;;;;;;0.00;0.00;;;;;15.51;77.67;100045.72;5057174;28;45377;-61
2022/10/01 06:06:49;;;;;;;;;0.00;0.00;;;;;15.51;76.32;100052.81;5054106;28;45608;-61
2022/10/01 06:09:14;;;;;;;;;0.00;0.00;;;;;15.50;77.65;100049.31;5055062;28;45663;-62
2022/10/01 06:11:40;;;;;;;;;0.00;0.00;;;;;15.53;76.38;100064.13;5057442;28;45518;-61
2022/10/01 06:14:06;;;;;;;;;0.00;0.00;;;;;15.57;77.42;100073.63;5046485;28;45501;-61
2022/10/01 06:16:31;;;;;;;;;0.00;0.00;;;;;15.58;76.85;100078.81;5044208;28;45351;-62
2022/10/01 06:18:57;;;;;;;;;1.00;0.00;;;;;15.59;77.46;100092.94;5056804;28;45573;-63
2022/10/01 06:21:23;;;;;;;;;0.00;0.00;;;;;15.58;76.91;100085.91;5057225;28;45489;-62
2022/10/01 06:23:49;;;;;;;;;1.00;1.00;;;;;15.59;76.97;100087.63;5057011;28;45383;-62
2022/10/01 06:26:16;;;;;;;;;0.00;0.00;;;;;15.59;77.02;100088.47;5056529;28;45570;-63
2022/10/01 06:28:42;;;;;;;;;0.00;0.00;;;;;15.61;76.58;100088.38;5055835;28;47553;-62
2022/10/01 06:31:08;;;;;;;;;0.33;0.33;;;;;15.66;76.31;100099.50;5056801;28;50963;-62
2022/10/01 06:33:34;;;;;;;;;1.00;1.00;;;;;15.67;76.78;100103.88;5043838;28;45486;-62
2022/10/01 06:36:00;;;;;;;;;1.00;1.00;;;;;15.59;76.23;100092.94;5053088;28;45730;-63
2022/10/01 06:38:25;;;;;;;;;0.67;0.67;;;;;15.60;76.30;100081.38;5039120;28;45452;-63
2022/10/01 06:40:58;;;;;;;;;1.00;1.00;;;;;15.71;75.99;100104.56;5042060;28;45673;-63
2022/10/01 06:43:25;;;;;;;;;0.00;0.00;;;;;15.67;76.20;100104.72;5052078;28;45359;-63
2022/10/01 06:45:51;;;;;;;;;0.33;0.33;;;;;15.71;75.61;100100.09;5056839;28;45479;-63
2022/10/01 06:48:18;;;;;;;;;0.33;0.33;;;;;15.71;75.49;100104.56;5043659;28;45542;-62
2022/10/01 06:50:45;;;;;;;;;0.00;0.00;;;;;15.75;75.25;100112.22;5055052;28;45414;-62
2022/10/01 06:53:11;;;;;;;;;1.00;1.00;;;;;15.76;75.93;100105.13;5057243;28;45426;-62
2022/10/01 06:55:37;;;;;;;;;0.00;0.00;;;;;15.75;75.53;100112.22;5056681;28;45512;-64
2022/10/01 06:58:14;;;;;;;;;0.00;0.00;;;;;15.76;76.52;100123.69;5056197;28;46045;-64
2022/10/01 07:00:41;;;;;;;;;0.67;0.67;;;;;15.77;75.76;100115.63;5056467;28;45448;-64
2022/10/01 07:03:09;;;;;;;;;1.67;1.67;;;;;15.73;76.80;100113.28;5053480;28;45513;-65
2022/10/01 07:05:35;;;;;;;;;1.00;0.33;;;;;15.73;75.46;100115.94;5038414;28;45364;-64
2022/10/01 07:08:01;;;;;;;;;0.00;0.00;;;;;15.75;76.24;100128.13;5056092;28;46727;-65
2022/10/01 07:10:26;;;;;;;;;0.00;0.00;;;;;15.77;75.96;100126.25;5056137;28;45417;-64
2022/10/01 07:12:51;;;;;;;;;2.00;0.33;;;;;15.74;75.36;100123.75;5056417;28;45556;-64
2022/10/01 07:15:19;;;;;;;;;0.00;0.00;;;;;15.79;75.74;100134.09;5056511;28;45564;-67
2022/10/01 07:17:47;;;;;;;;;0.33;0.33;;;;;15.84;75.11;100142.59;5055675;28;45502;-65
2022/10/01 07:20:13;;;;;;;;;0.00;0.00;;;;;15.85;75.76;100152.25;5056185;28;45497;-66
2022/10/01 07:22:39;;;;;;;;;2.00;0.33;;;;;15.85;75.99;100154.88;5056365;28;45388;-66
2022/10/01 07:25:05;;;;;;;;;2.33;0.33;;;;;15.87;74.47;100160.94;5055174;28;45573;-65
2022/10/01 07:27:31;;;;;;;;;1.00;0.00;;;;;15.84;75.46;100155.84;5053857;28;45439;-66
2022/10/01 07:29:57;;;;;;;;;2.67;1.00;;;;;15.85;75.54;100165.50;5055203;28;45561;-67
2022/10/01 07:32:24;;;;;;;;;2.67;1.00;;;;;15.83;75.23;100162.13;5038011;28;45396;-67
2022/10/01 07:34:49;;;;;;;;;2.00;1.00;;;;;15.78;75.14;100158.91;5056410;28;45372;-67
2022/10/01 07:37:14;;;;;;;;;2.00;2.00;;;;;15.87;74.36;100174.22;5055542;28;56688;-65
2022/10/01 07:39:39;;;;;;;;;2.00;1.00;;;;;15.87;74.31;100175.06;5056224;28;45395;-62
2022/10/01 07:42:05;;;;;;;;;2.00;1.00;;;;;15.87;73.58;100179.50;5047642;28;45451;-62
2022/10/01 07:44:30;;;;;;;;;0.67;0.67;;;;;15.92;73.36;100187.19;5035839;28;45566;-62
2022/10/01 07:46:56;;;;;;;;;1.00;1.00;;;;;15.85;72.56;100178.75;5045252;28;47154;-62
2022/10/01 07:49:25;;;;;;;;;0.00;0.00;;;;;15.90;73.14;100185.50;5056051;28;45510;-62
2022/10/01 07:51:52;;;;;;;;;0.67;0.67;;;;;15.88;72.10;100194.50;5037405;28;45453;-62
2022/10/01 07:54:18;;;;;;;;;2.00;2.00;;;;;15.91;72.25;100199.59;5056400;28;45486;-62
2022/10/01 07:56:43;;;;;;;;;2.00;2.00;;;;;15.87;72.06;100198.09;5055698;28;45406;-62
2022/10/01 07:59:09;;;;;;;;;3.33;2.00;;;;;15.91;71.85;100199.59;5055826;28;45479;-65
2022/10/01 08:01:36;;;;;;;;;2.00;1.00;;;;;15.90;71.50;100212.03;5052720;28;45721;-63
2022/10/01 08:05:16;;;;;;;;;1.67;1.33;;;;;15.92;72.06;100219.84;5053804;28;45816;-66
2022/10/01 08:06:47;;;;;;;;;1.00;1.00;;;;;15.88;71.70;100213.06;5050591;28;45566;-64
2022/10/01 08:09:13;;;;;;;;;0.33;0.33;;;;;15.88;71.41;100213.91;5053569;28;45609;-63
2022/10/01 08:11:39;;;;;;;;;3.67;2.33;;;;;15.93;70.49;100213.59;5037094;28;45582;-64
2022/10/01 08:14:05;;;;;;;;;4.00;2.67;;;;;15.92;70.88;100219.00;5056036;28;45473;-65
2022/10/01 08:16:32;;;;;;;;;2.00;2.00;;;;;15.93;70.37;100204.78;5058470;28;45476;-65
2022/10/01 08:18:58;;;;;;;;;2.00;2.00;;;;;15.98;69.74;100224.75;5058245;28;45534;-66
2022/10/01 08:21:25;;;;;;;;;2.33;1.33;;;;;15.96;70.15;100223.16;5059077;28;45488;-65
2022/10/01 08:23:50;;;;;;;;;2.00;2.00;;;;;16.01;69.58;100236.97;5058906;28;45608;-65
2022/10/01 08:26:16;;;;;;;;;3.33;1.00;;;;;16.03;70.07;100237.75;5058630;28;45601;-63
2022/10/01 08:28:41;;;;;;;;;1.33;1.00;;;;;16.05;68.65;100247.31;5058637;28;45387;-64
2022/10/01 08:31:08;;;;;;;;;1.00;1.00;;;;;16.08;69.75;100249.75;5059008;28;45395;-64
2022/10/01 08:33:35;;;;;;;;;3.33;1.67;;;;;16.10;69.92;100245.22;5057802;28;45379;-65
2022/10/01 08:36:08;;;;;;;;;0.33;0.33;;;;;16.00;69.05;100238.78;5058585;28;45561;-63
2022/10/01 08:38:34;;;;;;;;;3.67;3.67;;;;;16.16;69.73;100262.53;5058066;28;45455;-65
2022/10/01 08:41:20;;;;;;;;;2.00;2.00;;;;;16.16;69.17;100265.19;5058086;28;45459;-64
2022/10/01 08:43:48;;;;;;;;;2.00;2.00;;;;;16.13;69.71;100266.25;5058169;28;45432;-64
2022/10/01 08:46:21;;;;;;;;;2.00;2.00;;;;;16.17;69.33;100271.34;5057347;28;45584;-63
2022/10/01 08:48:56;;;;;;;;;3.00;1.67;;;;;16.19;68.85;100283.56;5039433;28;46038;-64
2022/10/01 08:51:36;;;;;;;;;5.00;3.00;;;;;16.17;69.30;100277.50;5058238;28;45507;-65
2022/10/01 08:54:20;;;;;;;;;1.67;1.67;;;;;16.21;69.98;100286.97;5059308;28;45458;-64
2022/10/01 08:56:46;;;;;;;;;6.00;1.00;;;;;16.24;69.41;100296.53;5057664;28;47442;-64
2022/10/01 08:59:41;;;;;;;;;3.00;2.00;;;;;16.25;69.86;100287.63;5057613;28;45519;-64
2022/10/01 09:02:24;;;;;;;;;3.00;0.67;;;;;16.30;70.52;100304.09;5057943;28;45502;-64
2022/10/01 09:04:56;;;;;;;;;1.00;1.00;;;;;16.31;69.71;100300.53;5058413;28;45468;-65
2022/10/01 09:07:55;;;;;;;;;3.00;1.00;;;;;16.32;69.98;100300.41;5042227;28;46094;-64
2022/10/01 09:10:44;;;;;;;;;2.00;1.00;;;;;16.34;70.75;100311.78;5042857;28;45484;-64
2022/10/01 09:13:40;;;;;;;;;2.00;2.00;;;;;16.40;69.74;100309.69;5057298;28;45381;-65
2022/10/01 09:16:36;;;;;;;;;1.67;1.00;;;;;16.43;70.48;100312.16;5057398;28;45503;-65
2022/10/01 09:19:07;;;;;;;;;3.00;1.00;;;;;16.47;70.71;100311.84;5039405;28;46278;-63
2022/10/01 09:21:42;;;;;;;;;2.33;1.67;;;;;16.49;70.49;100317.91;5037530;28;45463;-63
2022/10/01 09:24:21;;;;;;;;;2.00;2.00;;;;;16.47;70.60;100310.97;5037741;28;45377;-64
2022/10/01 09:26:47;;;;;;;;;2.00;2.00;;;;;16.51;69.98;100329.28;5039950;28;45540;-63
2022/10/01 09:29:21;;;;;;;;;3.00;3.00;;;;;16.50;70.51;100324.09;5050916;28;45424;-65
2022/10/01 09:31:51;;;;;;;;;2.00;2.00;;;;;16.55;70.08;100324.63;5056671;28;45676;-64
2022/10/01 09:34:50;;;;;;;;;4.67;3.00;;;;;16.60;69.89;100335.78;5034801;28;45590;-63
2022/10/01 09:37:40;;;;;;;;;3.00;2.00;;;;;16.59;69.91;100333.25;5009060;28;45530;-63
2022/10/01 09:40:37;;;;;;;;;3.00;3.00;;;;;16.59;69.62;100341.22;5037347;28;45509;-63
2022/10/01 09:43:06;;;;;;;;;2.00;2.00;;;;;16.62;68.96;100346.31;5052776;28;45645;-63
2022/10/01 09:45:33;;;;;;;;;2.33;2.33;;;;;16.63;69.30;100350.66;5052059;28;45453;-63
2022/10/01 09:48:13;;;;;;;;;2.00;2.00;;;;;16.61;69.39;100341.97;5038791;28;45641;-64
2022/10/01 09:50:51;;;;;;;;;2.67;2.67;;;;;16.59;68.96;100339.41;5036057;28;45773;-63
2022/10/01 09:53:24;;;;;;;;;2.33;2.33;;;;;16.60;69.25;100341.09;5036016;28;45483;-63
2022/10/01 09:55:56;;;;;;;;;2.67;2.67;;;;;16.64;68.31;100353.25;5019088;28;45566;-63
2022/10/01 09:58:25;;;;;;;;;3.00;2.00;;;;;16.60;68.48;100349.06;5037061;28;45547;-63
2022/10/01 10:00:53;;;;;;;;;4.00;3.00;;;;;16.70;68.71;100368.78;5036809;28;46174;-63
2022/10/01 10:03:29;;;;;;;;;4.00;2.67;;;;;16.70;68.61;100371.41;5036955;28;45412;-63
2022/10/01 10:05:56;;;;;;;;;2.67;2.67;;;;;16.72;68.62;100361.56;5019298;28;45384;-63
2022/10/01 10:08:33;;;;;;;;;3.00;1.00;;;;;16.76;68.12;100367.50;5037313;28;45429;-63
2022/10/01 10:11:08;;;;;;;;;2.00;2.00;;;;;16.78;68.00;100368.31;5036717;28;47017;-64
2022/10/01 10:13:50;;;;;;;;;2.33;2.33;;;;;16.80;67.59;100377.03;5037217;28;45374;-63
2022/10/01 10:16:33;;;;;;;;;2.33;2.33;;;;;16.87;67.25;100383.66;5037194;28;45333;-63
2022/10/01 10:19:03;;;;;;;;;3.00;2.00;;;;;16.83;67.26;100379.50;5037124;28;45312;-63
2022/10/01 10:21:35;;;;;;;;;2.00;2.00;;;;;16.74;66.05;100354.34;5036739;28;46321;-64
2022/10/01 10:24:20;;;;;;;;;3.00;3.00;;;;;16.88;67.07;100384.50;5036789;28;45451;-63
2022/10/01 10:26:52;;;;;;;;;7.00;4.67;;;;;16.93;66.40;100380.59;5037222;28;45455;-64
2022/10/01 10:29:29;;;;;;;;;2.33;1.00;;;;;17.01;66.71;100385.41;5036612;28;45467;-63
2022/10/01 10:31:55;;;;;;;;;2.67;2.67;;;;;17.03;65.59;100398.59;5036806;28;45990;-64
2022/10/01 10:34:34;;;;;;;;;3.67;3.67;;;;;17.02;65.08;100392.41;5042443;28;45623;-62
2022/10/01 10:37:06;;;;;;;;;2.67;1.67;;;;;17.07;65.25;100390.31;5041272;28;45366;-62
2022/10/01 10:39:38;;;;;;;;;2.33;2.00;;;;;17.05;65.22;100370.97;5036930;28;45399;-62
2022/10/01 10:42:05;;;;;;;;;4.67;3.00;;;;;17.23;65.08;100396.31;5049600;28;46580;-62
2022/10/01 10:44:37;;;;;;;;;3.00;3.00;;;;;17.29;65.29;100403.03;5041930;28;45448;-62
2022/10/01 10:47:10;;;;;;;;;4.33;3.67;;;;;17.34;64.38;100410.72;5056230;28;45364;-62
2022/10/01 10:49:46;;;;;;;;;4.00;3.00;;;;;17.36;64.42;100407.00;5051673;28;45434;-62
2022/10/01 10:52:27;;;;;;;;;2.00;2.00;;;;;17.43;63.81;100397.63;5044070;28;46004;-62
2022/10/01 10:54:53;;;;;;;;;2.33;2.00;;;;;17.49;64.10;100406.16;5037090;28;45603;-62
2022/10/01 10:57:33;;;;;;;;;5.00;4.00;;;;;17.50;63.03;100405.22;5043591;28;45498;-62
2022/10/01 11:00:01;;;;;;;;;2.33;2.00;;;;;17.47;63.18;100398.31;5036526;28;45337;-63
2022/10/01 11:02:30;;;;;;;;;3.67;2.00;;;;;17.54;63.00;100415.53;5036549;28;46007;-62
2022/10/01 11:05:04;;;;;;;;;4.00;3.00;;;;;17.55;61.62;100417.25;5036162;28;45411;-62
2022/10/01 11:07:30;;;;;;;;;4.33;3.00;;;;;17.55;62.72;100416.41;5018529;28;45379;-61
2022/10/01 11:10:07;;;;;;;;;7.00;4.00;;;;;17.57;62.52;100425.09;5047016;28;45451;-61
2022/10/01 11:12:41;;;;;;;;;9.00;7.33;;;;;17.58;62.50;100438.31;5048355;28;45723;-60
2022/10/01 11:15:15;;;;;;;;;7.67;5.67;;;;;17.61;62.31;100431.94;5036115;28;45478;-61
2022/10/01 11:18:08;;;;;;;;;4.67;3.00;;;;;17.65;62.50;100441.41;5036025;28;45372;-61
2022/10/01 11:20:49;;;;;;;;;5.67;3.67;;;;;17.59;62.25;100429.38;4999927;28;45494;-61
2022/10/01 11:23:45;;;;;;;;;5.33;5.33;;;;;17.70;62.02;100435.78;5056141;28;45429;-60
2022/10/01 11:26:13;;;;;;;;;6.00;3.00;;;;;17.63;61.31;100435.34;5055428;28;45369;-61
2022/10/01 11:28:58;;;;;;;;;7.00;5.67;;;;;17.64;62.07;100437.03;5055660;28;45456;-61
2022/10/01 11:31:35;;;;;;;;;3.67;3.67;;;;;17.68;62.12;100441.22;5014202;28;45600;-61
2022/10/01 11:34:30;;;;;;;;;3.33;3.33;;;;;17.65;61.99;100436.06;5055008;28;45597;-61
2022/10/01 11:37:09;;;;;;;;;7.33;4.67;;;;;17.76;62.35;100446.00;5055614;28;45427;-60
2022/10/01 11:39:39;;;;;;;;;5.33;4.00;;;;;17.75;62.07;100445.16;5055654;28;45369;-61
2022/10/01 11:42:09;;;;;;;;;2.00;2.00;;;;;17.81;61.20;100431.47;5055076;28;45419;-61
2022/10/01 11:44:44;;;;;;;;;4.33;3.00;;;;;17.83;60.48;100445.50;5055105;28;46585;-61
2022/10/01 11:47:18;;;;;;;;;3.67;3.00;;;;;17.85;61.23;100432.97;5043730;28;45498;-61